Sheridan, Oregon
Current Conditions -  °F | °C
As of 7:53 AM on Thursday 30 Oct 2014 (Local Time) from KMMV Reporting Station
Broken Clouds Broken Clouds  
Wind Chill: 55°   Ceiling: 4400
Heat Index: 55°   Visibility: 8mi
Dew Point: 54°   Wind: 3mph
Humidity: 96%   Direction: 290°WNW
Pressure: 29.89"   Gusts: NA
Location:  45.1°N, 123.39°W
Report Text: KMMV 301453Z AUTO 29003KT 8SM BKN044 BKN060 13/12 A2989 RMK AO2 RAE40 SLP121 P0001 60004 T01280122 56012
Loading
Personal Weather Stations






























Interactive Weather Map
Tropical Storm Tracking
New forecast layout! Learn more

10-Day Weather Forecast

Advertisements
Track Severe Weather on mobile